Time;durP1;ratioP1;P1;durP2;ratioP2;P2;SDS_P1;SDS_P2;PMS_P1;PMS_P2;Temp;Humidity;BMP_temperature;BMP_pressure;BME280_temperature;BME280_humidity;BME280_pressure;Samples;Min_cycle;Max_cycle;Signal;HPM_P1;HPM_P2
2024/02/27 00:01:42;;;;;;;19.08;12.60;;;10.20;99.90;;;;;;5033250;28;20097;-69
2024/02/27 00:04:09;;;;;;;18.85;12.60;;;10.20;99.90;;;;;;5032702;28;20071;-69
2024/02/27 00:06:35;;;;;;;23.40;14.48;;;10.20;99.90;;;;;;5033054;28;20466;-69
2024/02/27 00:09:02;;;;;;;23.67;13.25;;;10.20;99.90;;;;;;5033189;28;20037;-69
2024/02/27 00:11:29;;;;;;;21.58;13.73;;;10.10;99.90;;;;;;5033110;28;20021;-69
2024/02/27 00:13:55;;;;;;;23.07;13.93;;;10.10;99.90;;;;;;5032569;28;20033;-69
2024/02/27 00:16:21;;;;;;;24.27;14.37;;;10.10;99.90;;;;;;5032971;28;20056;-69
2024/02/27 00:18:48;;;;;;;19.53;13.03;;;10.10;99.90;;;;;;5033027;28;20076;-69
2024/02/27 00:21:14;;;;;;;23.45;13.82;;;10.10;99.90;;;;;;5032849;28;20041;-69
2024/02/27 00:23:40;;;;;;;24.30;13.68;;;10.10;99.90;;;;;;5033020;28;20034;-69
2024/02/27 00:26:05;;;;;;;24.27;14.03;;;10.10;99.90;;;;;;5033092;28;20072;-70
2024/02/27 00:28:31;;;;;;;22.55;14.15;;;10.10;99.90;;;;;;5032672;28;20021;-69
2024/02/27 00:30:57;;;;;;;23.17;13.57;;;10.10;99.90;;;;;;5030594;28;20026;-69
2024/02/27 00:33:23;;;;;;;17.08;12.63;;;10.10;99.90;;;;;;5032672;28;20025;-69
2024/02/27 00:35:49;;;;;;;21.08;12.60;;;10.10;99.90;;;;;;5033017;28;20048;-70
2024/02/27 00:38:15;;;;;;;22.60;12.37;;;10.10;99.90;;;;;;5032755;28;20045;-69
2024/02/27 00:40:40;;;;;;;18.85;12.23;;;10.10;99.90;;;;;;5032818;28;20073;-71
2024/02/27 00:43:06;;;;;;;19.45;12.90;;;10.10;99.90;;;;;;5032321;28;20045;-70
2024/02/27 00:45:32;;;;;;;21.63;12.00;;;10.00;99.90;;;;;;5032685;28;20034;-69
2024/02/27 00:47:58;;;;;;;20.23;10.67;;;10.00;99.90;;;;;;5031130;28;20135;-69
2024/02/27 00:50:24;;;;;;;18.67;12.07;;;10.10;99.90;;;;;;5032229;28;20080;-69
2024/02/27 00:52:50;;;;;;;19.50;13.27;;;10.10;99.90;;;;;;5032459;28;20026;-70
2024/02/27 00:55:16;;;;;;;17.87;10.90;;;10.20;99.90;;;;;;5032793;28;20044;-69
2024/02/27 00:57:43;;;;;;;17.92;11.43;;;10.10;99.90;;;;;;5032389;28;20061;-69
2024/02/27 01:00:12;;;;;;;17.37;10.57;;;10.10;99.90;;;;;;5032074;28;20021;-69
2024/02/27 01:02:39;;;;;;;16.50;11.03;;;10.10;99.90;;;;;;5032174;28;20029;-69
2024/02/27 01:05:06;;;;;;;17.80;11.43;;;10.10;99.90;;;;;;5032143;28;20048;-69
2024/02/27 01:07:32;;;;;;;23.75;11.30;;;10.10;99.90;;;;;;5032294;28;20722;-69
2024/02/27 01:09:58;;;;;;;17.63;11.57;;;10.10;99.90;;;;;;5032761;28;20086;-69
2024/02/27 01:12:25;;;;;;;18.00;11.53;;;10.10;99.90;;;;;;5032652;28;20034;-69
2024/02/27 01:14:51;;;;;;;17.42;11.40;;;10.10;99.90;;;;;;5032230;28;20029;-69
2024/02/27 01:17:17;;;;;;;17.40;10.93;;;10.10;99.90;;;;;;5032077;28;20474;-69
2024/02/27 01:19:43;;;;;;;16.65;10.52;;;10.10;99.90;;;;;;5032150;28;20030;-69
2024/02/27 01:22:08;;;;;;;16.70;10.23;;;10.10;99.90;;;;;;5032065;28;20029;-69
2024/02/27 01:24:34;;;;;;;16.52;10.07;;;10.00;99.90;;;;;;5032062;28;20128;-69
2024/02/27 01:27:00;;;;;;;17.03;9.97;;;10.00;99.90;;;;;;5032048;28;20029;-69
2024/02/27 01:29:26;;;;;;;15.47;9.60;;;10.10;99.90;;;;;;5030323;28;20539;-69
2024/02/27 01:31:55;;;;;;;15.35;10.10;;;10.10;99.90;;;;;;5031965;28;20097;-69
2024/02/27 01:34:20;;;;;;;15.70;9.70;;;10.00;99.90;;;;;;5031882;28;20029;-69
2024/02/27 01:36:47;;;;;;;14.55;9.60;;;10.00;99.90;;;;;;5031995;28;20044;-69
2024/02/27 01:39:13;;;;;;;15.17;9.73;;;10.10;99.90;;;;;;5032087;28;20425;-69
2024/02/27 01:41:47;;;;;;;17.73;11.23;;;10.00;99.90;;;;;;5033174;28;20036;-69
2024/02/27 01:44:13;;;;;;;15.43;9.02;;;10.00;99.90;;;;;;5035571;28;20037;-69
2024/02/27 01:46:40;;;;;;;13.97;9.03;;;10.00;99.90;;;;;;5035834;28;20046;-69
2024/02/27 01:49:08;;;;;;;17.63;8.75;;;10.00;99.90;;;;;;5034504;28;20553;-69
2024/02/27 01:51:34;;;;;;;11.80;8.32;;;10.00;99.90;;;;;;5035299;28;20026;-69
2024/02/27 01:54:01;;;;;;;11.50;7.93;;;10.00;99.90;;;;;;5035576;28;20029;-69
2024/02/27 01:56:28;;;;;;;16.25;7.95;;;10.00;99.90;;;;;;5034492;28;20024;-69
2024/02/27 01:58:55;;;;;;;13.25;7.75;;;9.90;99.90;;;;;;5033164;28;20026;-69
2024/02/27 02:01:22;;;;;;;11.03;6.90;;;9.90;99.90;;;;;;5032736;28;20056;-70
2024/02/27 02:03:51;;;;;;;12.70;7.63;;;10.00;99.90;;;;;;5032787;28;20064;-69
2024/02/27 02:06:17;;;;;;;11.70;7.37;;;10.00;99.90;;;;;;5034736;28;20024;-69
2024/02/27 02:08:43;;;;;;;12.77;7.17;;;9.90;99.90;;;;;;5035340;28;20022;-69
2024/02/27 02:11:11;;;;;;;13.93;7.03;;;10.00;99.90;;;;;;5035452;28;20025;-69
2024/02/27 02:13:37;;;;;;;11.50;6.90;;;10.00;99.90;;;;;;5035160;28;20049;-69
2024/02/27 02:16:04;;;;;;;10.33;6.70;;;10.00;99.90;;;;;;5035130;28;20032;-69
2024/02/27 02:18:30;;;;;;;9.05;5.70;;;9.90;99.90;;;;;;5035464;28;20075;-69
2024/02/27 02:20:56;;;;;;;9.80;5.40;;;10.00;99.90;;;;;;5035215;28;20478;-69
2024/02/27 02:23:22;;;;;;;8.48;5.40;;;10.00;99.90;;;;;;5035145;28;20548;-69
2024/02/27 02:25:49;;;;;;;10.20;4.90;;;10.00;99.90;;;;;;5035085;28;20109;-69
2024/02/27 02:28:15;;;;;;;7.67;4.37;;;10.00;99.90;;;;;;5034468;28;20100;-69
2024/02/27 02:30:43;;;;;;;7.82;4.22;;;10.00;99.90;;;;;;5033620;28;20032;-69
2024/02/27 02:33:12;;;;;;;9.32;4.18;;;10.00;99.90;;;;;;5034691;28;20024;-69
2024/02/27 02:35:42;;;;;;;7.70;3.43;;;10.00;99.90;;;;;;5033084;28;20148;-69
2024/02/27 02:38:08;;;;;;;8.68;4.25;;;10.00;99.90;;;;;;5034475;28;20026;-70
2024/02/27 02:40:33;;;;;;;5.43;3.78;;;10.00;99.90;;;;;;5034481;28;20030;-69
2024/02/27 02:42:59;;;;;;;6.03;4.17;;;10.00;99.90;;;;;;5034846;28;20017;-69
2024/02/27 02:45:25;;;;;;;8.93;3.93;;;10.00;99.90;;;;;;5034971;28;20068;-69
2024/02/27 02:47:51;;;;;;;8.98;3.58;;;10.10;99.90;;;;;;5034611;28;20057;-69
2024/02/27 02:50:17;;;;;;;5.23;2.90;;;10.00;99.90;;;;;;5034611;28;20108;-69
2024/02/27 02:52:44;;;;;;;5.47;3.33;;;10.00;99.90;;;;;;5033949;28;20029;-69
2024/02/27 02:55:10;;;;;;;6.17;3.50;;;10.00;99.90;;;;;;5034252;28;20018;-69
2024/02/27 02:57:36;;;;;;;5.50;3.30;;;10.00;99.90;;;;;;5034541;28;20378;-69
2024/02/27 03:00:04;;;;;;;5.70;3.60;;;10.00;99.90;;;;;;5034458;28;20084;-69
2024/02/27 03:02:30;;;;;;;8.00;3.58;;;10.00;99.90;;;;;;5034511;28;20071;-69
2024/02/27 03:04:57;;;;;;;5.97;3.38;;;10.10;99.90;;;;;;5034408;28;20056;-69
2024/02/27 03:07:22;;;;;;;7.68;3.45;;;10.00;99.90;;;;;;5032903;28;20470;-70
2024/02/27 03:09:48;;;;;;;6.53;3.75;;;10.10;99.90;;;;;;5034320;28;20064;-69
2024/02/27 03:12:14;;;;;;;9.45;4.50;;;10.10;99.90;;;;;;5034185;28;20104;-69
2024/02/27 03:14:45;;;;;;;6.47;4.35;;;10.10;99.90;;;;;;5033965;28;20109;-69
2024/02/27 03:17:14;;;;;;;12.95;5.45;;;10.10;99.90;;;;;;5033951;28;20018;-69
2024/02/27 03:19:40;;;;;;;11.93;6.80;;;10.10;99.90;;;;;;5034276;28;20092;-69
2024/02/27 03:22:06;;;;;;;9.82;6.13;;;10.10;99.90;;;;;;5033817;28;20056;-69
2024/02/27 03:24:32;;;;;;;13.60;5.53;;;10.10;99.90;;;;;;5033860;28;20065;-69
2024/02/27 03:26:58;;;;;;;9.60;4.72;;;10.10;99.90;;;;;;5033682;28;20056;-69
2024/02/27 03:29:23;;;;;;;7.97;4.80;;;10.10;99.90;;;;;;5034167;28;20552;-69
2024/02/27 03:31:49;;;;;;;7.72;5.18;;;10.10;99.90;;;;;;5034280;28;20064;-69
2024/02/27 03:34:15;;;;;;;9.40;5.93;;;10.00;99.90;;;;;;5033706;28;20036;-69
2024/02/27 03:36:41;;;;;;;6.90;4.60;;;10.00;99.90;;;;;;5033754;28;20072;-69
2024/02/27 03:39:07;;;;;;;8.77;4.30;;;10.00;99.90;;;;;;5033721;28;20496;-69
2024/02/27 03:41:33;;;;;;;7.20;4.30;;;10.00;99.90;;;;;;5033774;28;20033;-69
2024/02/27 03:43:58;;;;;;;5.80;3.00;;;10.00;99.90;;;;;;5033601;28;20041;-69
2024/02/27 03:46:24;;;;;;;7.27;2.60;;;10.00;99.90;;;;;;5033357;28;20100;-69
2024/02/27 03:48:50;;;;;;;4.83;2.17;;;10.00;99.90;;;;;;5033191;28;20660;-69
2024/02/27 03:51:16;;;;;;;6.72;2.30;;;10.10;99.90;;;;;;5033234;28;20065;-69
2024/02/27 03:53:41;;;;;;;3.28;1.70;;;10.10;99.90;;;;;;5033630;28;20033;-69
2024/02/27 03:56:07;;;;;;;4.95;1.65;;;10.10;99.90;;;;;;5033160;28;20375;-69
2024/02/27 03:58:36;;;;;;;4.13;1.90;;;10.10;99.90;;;;;;5033614;28;20033;-69
2024/02/27 04:01:02;;;;;;;4.00;1.73;;;10.10;99.90;;;;;;5033314;28;20402;-69
2024/02/27 04:03:27;;;;;;;4.72;1.65;;;10.20;99.90;;;;;;5032813;28;20021;-69
2024/02/27 04:05:53;;;;;;;2.97;1.33;;;10.20;99.90;;;;;;5033005;28;20053;-69
2024/02/27 04:08:19;;;;;;;2.58;1.27;;;10.20;99.90;;;;;;5033002;28;20017;-69
2024/02/27 04:10:45;;;;;;;2.90;1.27;;;10.20;99.90;;;;;;5032837;28;20037;-69
2024/02/27 04:13:10;;;;;;;4.20;1.50;;;10.20;99.90;;;;;;5032727;28;20030;-69
2024/02/27 04:15:36;;;;;;;3.40;1.60;;;10.30;99.90;;;;;;5033066;28;20100;-69
2024/02/27 04:18:03;;;;;;;2.40;1.35;;;10.30;99.90;;;;;;5033119;28;20104;-69
2024/02/27 04:20:29;;;;;;;3.10;1.35;;;10.30;99.90;;;;;;5032783;28;20071;-69
2024/02/27 04:22:54;;;;;;;4.80;2.00;;;10.30;99.90;;;;;;5032639;28;20021;-69
2024/02/27 04:25:20;;;;;;;5.93;2.13;;;10.30;99.90;;;;;;5032710;28;20029;-69
2024/02/27 04:27:46;;;;;;;4.28;2.25;;;10.30;99.90;;;;;;5031425;28;20028;-69
2024/02/27 04:30:12;;;;;;;2.88;1.50;;;10.30;99.90;;;;;;5032767;28;20029;-69
2024/02/27 04:32:38;;;;;;;3.97;1.40;;;10.30;99.90;;;;;;5033042;28;20017;-69
2024/02/27 04:35:05;;;;;;;5.38;1.50;;;10.30;99.90;;;;;;5032858;28;20021;-69
2024/02/27 04:37:31;;;;;;;3.37;1.20;;;10.40;99.90;;;;;;5032964;28;20029;-69
2024/02/27 04:39:57;;;;;;;2.38;1.25;;;10.40;99.90;;;;;;5032933;28;20048;-69
2024/02/27 04:42:23;;;;;;;2.92;1.30;;;10.30;99.90;;;;;;5032636;28;20033;-69
2024/02/27 04:44:49;;;;;;;3.95;1.35;;;10.40;99.90;;;;;;5032851;28;20037;-69
2024/02/27 04:47:14;;;;;;;4.05;1.58;;;10.30;99.90;;;;;;5032656;28;20028;-69
2024/02/27 04:49:40;;;;;;;3.90;1.67;;;10.30;99.90;;;;;;5032216;28;20068;-69
2024/02/27 04:52:06;;;;;;;3.65;1.45;;;10.40;99.90;;;;;;5032828;28;20076;-68
2024/02/27 04:54:34;;;;;;;3.53;1.25;;;10.40;99.90;;;;;;5032250;28;20023;-69
2024/02/27 04:57:00;;;;;;;2.80;1.30;;;10.40;99.90;;;;;;5032265;28;20104;-69
2024/02/27 04:59:25;;;;;;;3.92;1.98;;;10.40;99.90;;;;;;5032518;28;20101;-69
2024/02/27 05:01:51;;;;;;;6.22;1.65;;;10.40;99.90;;;;;;5032573;28;20030;-69
2024/02/27 05:04:17;;;;;;;3.90;1.75;;;10.40;99.90;;;;;;5032707;28;20040;-69
2024/02/27 05:06:43;;;;;;;5.70;1.50;;;10.40;99.90;;;;;;5032677;28;20477;-69
2024/02/27 05:09:09;;;;;;;3.20;1.83;;;10.30;99.90;;;;;;5032247;28;20029;-68
2024/02/27 05:11:35;;;;;;;3.40;1.58;;;10.30;99.90;;;;;;5032089;28;20108;-69
2024/02/27 05:14:01;;;;;;;3.58;1.55;;;10.30;99.90;;;;;;5032162;28;20064;-69
2024/02/27 05:16:26;;;;;;;4.00;1.42;;;10.30;99.90;;;;;;5032900;28;20029;-69
2024/02/27 05:18:52;;;;;;;3.35;1.73;;;10.30;99.90;;;;;;5036018;28;20421;-69
2024/02/27 05:21:21;;;;;;;4.47;1.50;;;10.20;99.90;;;;;;5036045;28;20021;-69
2024/02/27 05:23:47;;;;;;;4.20;1.75;;;10.20;99.90;;;;;;5035965;28;20040;-69
2024/02/27 05:26:16;;;;;;;4.20;1.77;;;10.30;99.90;;;;;;5036003;28;20111;-69
2024/02/27 05:28:41;;;;;;;5.73;2.00;;;10.20;99.90;;;;;;5036119;28;20088;-69
2024/02/27 05:31:23;;;;;;;4.53;1.80;;;10.20;99.90;;;;;;5036079;28;20049;-69
2024/02/27 05:33:52;;;;;;;6.28;1.85;;;10.20;99.90;;;;;;5034764;28;20068;-69
2024/02/27 05:36:19;;;;;;;5.05;1.70;;;10.20;99.90;;;;;;5036120;28;20112;-69
2024/02/27 05:38:45;;;;;;;6.57;1.63;;;10.10;99.90;;;;;;5036053;28;20029;-69
2024/02/27 05:41:11;;;;;;;3.90;1.67;;;10.10;99.90;;;;;;5035860;28;20103;-70
2024/02/27 05:43:37;;;;;;;6.00;1.93;;;10.10;99.90;;;;;;5035736;28;20030;-69
2024/02/27 05:46:06;;;;;;;6.20;1.80;;;10.10;99.90;;;;;;5035847;28;20029;-69
2024/02/27 05:48:34;;;;;;;7.27;2.10;;;10.10;99.90;;;;;;5035351;28;20952;-69
2024/02/27 05:50:59;;;;;;;5.82;1.73;;;10.10;99.90;;;;;;5035188;28;20021;-69
2024/02/27 05:53:26;;;;;;;5.53;2.03;;;10.10;99.90;;;;;;5035543;28;20048;-69
2024/02/27 05:55:51;;;;;;;4.45;2.10;;;10.10;99.90;;;;;;5035805;28;20044;-69
2024/02/27 05:58:19;;;;;;;6.53;1.97;;;10.10;99.90;;;;;;5035578;28;20029;-69
2024/02/27 06:00:45;;;;;;;7.43;2.60;;;10.10;99.90;;;;;;5035435;28;20022;-69
2024/02/27 06:03:11;;;;;;;4.40;2.03;;;10.10;99.90;;;;;;5035811;28;20043;-69
2024/02/27 06:05:37;;;;;;;5.88;2.25;;;10.10;99.90;;;;;;5035495;28;20033;-69
2024/02/27 06:08:03;;;;;;;7.20;2.30;;;10.00;99.90;;;;;;5035420;28;20104;-70
2024/02/27 06:10:28;;;;;;;5.40;2.00;;;10.10;99.90;;;;;;5035737;28;20025;-69
2024/02/27 06:12:54;;;;;;;5.40;1.87;;;10.10;99.90;;;;;;5035040;28;20087;-69
2024/02/27 06:15:20;;;;;;;9.90;2.17;;;10.00;99.90;;;;;;5035602;28;20096;-70
2024/02/27 06:17:46;;;;;;;4.50;2.20;;;10.00;99.90;;;;;;5035238;28;20033;-69
2024/02/27 06:22:55;;;;;;;6.53;2.10;;;10.00;99.90;;;;;;5035335;28;20083;-69
2024/02/27 06:25:21;;;;;;;3.83;1.80;;;10.00;99.90;;;;;;5034337;28;20618;-69
2024/02/27 06:27:50;;;;;;;4.47;1.70;;;10.10;99.90;;;;;;5033607;28;20052;-70
2024/02/27 06:30:16;;;;;;;8.43;2.25;;;10.00;99.90;;;;;;5034786;28;20029;-69
2024/02/27 06:32:42;;;;;;;4.45;2.67;;;10.00;99.90;;;;;;5034753;28;20025;-69
2024/02/27 06:35:11;;;;;;;5.77;2.00;;;10.10;99.90;;;;;;5034912;28;20037;-70
2024/02/27 06:37:37;;;;;;;5.75;2.08;;;10.10;99.90;;;;;;5034622;28;20477;-69
2024/02/27 06:40:04;;;;;;;3.20;1.65;;;10.10;99.90;;;;;;5034811;28;20028;-69
2024/02/27 06:42:36;;;;;;;7.30;2.50;;;10.10;99.90;;;;;;5034618;28;20103;-69
2024/02/27 06:45:05;;;;;;;;;;;10.10;99.90;;;;;;5034663;28;20429;-69
2024/02/27 06:47:31;;;;;;;9.07;2.67;;;10.10;99.90;;;;;;5034354;28;19912;-69
2024/02/27 06:49:58;;;;;;;9.20;2.40;;;10.10;99.90;;;;;;5034697;28;20050;-69
2024/02/27 06:52:26;;;;;;;7.53;1.90;;;10.10;99.90;;;;;;5034664;28;20030;-69
2024/02/27 06:54:52;;;;;;;4.05;2.05;;;10.20;99.90;;;;;;5034291;28;20017;-69
2024/02/27 06:57:18;;;;;;;5.70;2.10;;;10.20;99.90;;;;;;5034183;28;20052;-69
2024/02/27 06:59:44;;;;;;;4.50;2.50;;;10.20;99.90;;;;;;5034327;28;20104;-69
2024/02/27 07:02:10;;;;;;;4.83;2.10;;;10.20;99.90;;;;;;5033685;28;20068;-69
2024/02/27 07:04:36;;;;;;;5.60;2.40;;;10.20;99.90;;;;;;5033449;28;20132;-70
2024/02/27 07:07:03;;;;;;;5.68;2.30;;;10.20;99.90;;;;;;5033816;28;20075;-68
2024/02/27 07:09:32;;;;;;;5.45;2.13;;;10.20;99.90;;;;;;5034056;28;20546;-68
2024/02/27 07:11:59;;;;;;;3.65;2.30;;;10.20;99.90;;;;;;5033900;28;20017;-69
2024/02/27 07:14:27;;;;;;;7.40;2.50;;;10.20;99.90;;;;;;5033866;28;20032;-68
2024/02/27 07:16:53;;;;;;;7.15;2.65;;;10.20;99.90;;;;;;5033383;28;20026;-69
2024/02/27 07:19:21;;;;;;;4.72;2.35;;;10.30;99.90;;;;;;5033458;28;20026;-68
2024/02/27 07:21:47;;;;;;;5.03;2.17;;;10.30;99.90;;;;;;5032649;28;20033;-68
2024/02/27 07:24:16;;;;;;;6.28;2.35;;;10.30;99.90;;;;;;5030948;28;20495;-68
2024/02/27 07:26:42;;;;;;;5.60;2.10;;;10.30;99.90;;;;;;5033448;28;20040;-70
2024/02/27 07:29:08;;;;;;;8.38;2.30;;;10.30;99.90;;;;;;5033949;28;20026;-71
2024/02/27 07:31:34;;;;;;;4.68;2.50;;;10.30;99.90;;;;;;5034004;28;20033;-71
2024/02/27 07:34:01;;;;;;;7.77;2.77;;;10.30;99.90;;;;;;5034165;28;20466;-71
2024/02/27 07:36:27;;;;;;;8.98;2.58;;;10.30;99.90;;;;;;5034122;28;20540;-71
2024/02/27 07:38:52;;;;;;;7.45;2.17;;;10.30;99.90;;;;;;5033564;28;20057;-70
2024/02/27 07:41:19;;;;;;;4.35;2.22;;;10.30;99.90;;;;;;5033728;28;20036;-71
2024/02/27 07:43:45;;;;;;;7.27;2.70;;;10.40;99.90;;;;;;5033173;28;20033;-69
2024/02/27 07:46:15;;;;;;;3.75;1.77;;;10.40;99.90;;;;;;5033377;28;20033;-70
2024/02/27 07:48:44;;;;;;;4.60;1.88;;;10.40;99.90;;;;;;5033509;28;20041;-70
2024/02/27 07:51:29;;;;;;;5.35;2.13;;;10.40;99.90;;;;;;5033229;28;20025;-69
2024/02/27 07:53:55;;;;;;;4.53;2.20;;;10.40;99.90;;;;;;5033455;28;20025;-70
2024/02/27 07:56:21;;;;;;;3.45;1.70;;;10.40;99.90;;;;;;5033329;28;20057;-70
2024/02/27 07:58:46;;;;;;;4.05;1.70;;;10.50;99.90;;;;;;5033473;28;20060;-70
2024/02/27 08:01:13;;;;;;;7.87;2.50;;;10.50;99.90;;;;;;5033580;28;20027;-70
2024/02/27 08:03:39;;;;;;;5.82;2.25;;;10.50;99.90;;;;;;5033302;28;20025;-70
2024/02/27 08:06:08;;;;;;;6.53;2.60;;;10.50;99.90;;;;;;5033621;28;20086;-70
2024/02/27 08:08:33;;;;;;;5.63;2.50;;;10.50;99.90;;;;;;5031954;28;20057;-69
2024/02/27 08:10:59;;;;;;;7.47;3.63;;;10.50;99.90;;;;;;5030127;28;20080;-69
2024/02/27 08:13:25;;;;;;;5.47;2.88;;;10.50;99.90;;;;;;5029679;28;20068;-69
2024/02/27 08:15:52;;;;;;;6.28;3.03;;;10.50;99.90;;;;;;5031737;28;20030;-69
2024/02/27 08:18:17;;;;;;;8.40;3.95;;;10.50;99.90;;;;;;5032808;28;20080;-68
2024/02/27 08:20:44;;;;;;;8.93;3.75;;;10.50;99.90;;;;;;5032708;28;20033;-72
2024/02/27 08:23:10;;;;;;;6.10;3.60;;;10.50;99.90;;;;;;5032466;28;20481;-69
2024/02/27 08:25:37;;;;;;;9.68;4.00;;;10.50;99.90;;;;;;5032760;28;20069;-69
2024/02/27 08:28:03;;;;;;;8.43;3.45;;;10.60;99.90;;;;;;5032725;28;20438;-69
2024/02/27 08:30:29;;;;;;;4.28;2.65;;;10.60;99.90;;;;;;5033137;28;20516;-72
2024/02/27 08:32:55;;;;;;;7.60;2.35;;;10.60;99.90;;;;;;5032797;28;20029;-70
2024/02/27 08:35:21;;;;;;;4.90;2.70;;;10.60;99.90;;;;;;5033112;28;20083;-73
2024/02/27 08:37:47;;;;;;;8.73;2.42;;;10.70;99.90;;;;;;5033179;28;20108;-68
2024/02/27 08:40:13;;;;;;;5.78;2.47;;;10.70;99.90;;;;;;5032636;28;20025;-75
2024/02/27 08:42:39;;;;;;;4.50;2.30;;;10.70;99.90;;;;;;5033134;28;20047;-70
2024/02/27 08:45:06;;;;;;;6.35;2.38;;;10.70;99.90;;;;;;5032563;28;20083;-74
2024/02/27 08:47:33;;;;;;;3.95;1.90;;;10.70;99.90;;;;;;5031290;28;20022;-74
2024/02/27 08:49:58;;;;;;;5.05;1.83;;;10.70;99.90;;;;;;5030672;28;20484;-69
2024/02/27 08:52:24;;;;;;;4.85;2.10;;;10.70;99.90;;;;;;5030033;28;20105;-73
2024/02/27 08:54:50;;;;;;;8.02;2.30;;;10.70;99.90;;;;;;5030517;28;20033;-73
2024/02/27 08:57:15;;;;;;;4.80;2.58;;;10.80;99.90;;;;;;5030723;28;20064;-74
2024/02/27 08:59:46;;;;;;;4.75;2.35;;;10.80;99.90;;;;;;5030597;28;20030;-74
2024/02/27 09:02:12;;;;;;;6.55;2.53;;;10.80;99.90;;;;;;5030721;28;20029;-74
2024/02/27 09:04:37;;;;;;;7.22;2.90;;;10.80;99.90;;;;;;5032416;28;20036;-72
2024/02/27 09:07:03;;;;;;;5.38;3.15;;;10.80;99.90;;;;;;5032693;28;20026;-73
2024/02/27 09:09:29;;;;;;;4.93;2.80;;;10.80;99.90;;;;;;5032236;28;20108;-70
2024/02/27 09:11:55;;;;;;;6.03;3.17;;;10.80;99.90;;;;;;5032241;28;20439;-73
2024/02/27 09:14:22;;;;;;;6.90;3.88;;;10.80;99.90;;;;;;5031690;28;20021;-68
2024/02/27 09:16:48;;;;;;;7.30;4.03;;;10.80;99.90;;;;;;5026831;28;20030;-69
2024/02/27 09:19:15;;;;;;;5.88;2.90;;;10.90;99.90;;;;;;5027246;28;20572;-68
2024/02/27 09:21:41;;;;;;;4.38;3.08;;;10.90;99.90;;;;;;5030125;28;20039;-69
2024/02/27 09:24:07;;;;;;;5.00;2.60;;;10.90;99.90;;;;;;5030178;28;20440;-69
2024/02/27 09:26:33;;;;;;;4.70;2.80;;;10.90;99.90;;;;;;5029860;28;20097;-69
2024/02/27 09:29:00;;;;;;;6.50;3.30;;;10.90;99.90;;;;;;5030074;28;20029;-69
2024/02/27 09:31:26;;;;;;;5.70;2.70;;;10.90;99.90;;;;;;5030484;28;20028;-70
2024/02/27 09:33:52;;;;;;;7.30;2.97;;;10.90;99.90;;;;;;5030426;28;20025;-70
2024/02/27 09:36:18;;;;;;;4.50;3.20;;;10.90;99.90;;;;;;5031906;28;20018;-70
2024/02/27 09:38:43;;;;;;;4.47;2.80;;;11.00;99.90;;;;;;5031876;28;20026;-69
2024/02/27 09:41:22;;;;;;;6.05;2.75;;;11.00;99.90;;;;;;5031879;28;20032;-71
2024/02/27 09:43:53;;;;;;;6.95;2.88;;;11.00;99.90;;;;;;5031592;28;20022;-71
2024/02/27 09:46:23;;;;;;;8.15;4.00;;;11.10;99.90;;;;;;5031581;28;20060;-70
2024/02/27 09:48:51;;;;;;;5.50;3.72;;;11.00;99.90;;;;;;5031061;28;20038;-70
2024/02/27 09:51:20;;;;;;;5.40;2.60;;;11.10;99.90;;;;;;5031118;28;20381;-70
2024/02/27 09:53:48;;;;;;;6.60;2.60;;;11.10;99.90;;;;;;5031062;28;20032;-69
2024/02/27 09:56:15;;;;;;;5.15;2.40;;;11.10;99.90;;;;;;5031294;28;20093;-69
2024/02/27 09:58:44;;;;;;;6.68;3.55;;;11.20;99.90;;;;;;5007198;28;20042;-72
2024/02/27 10:01:15;;;;;;;5.45;3.22;;;11.10;99.90;;;;;;5011989;28;20038;-69
2024/02/27 10:03:45;;;;;;;6.75;2.50;;;11.20;99.90;;;;;;5013190;28;20517;-68
2024/02/27 10:06:13;;;;;;;5.40;3.22;;;11.20;99.90;;;;;;5013906;28;20070;-68
2024/02/27 10:08:41;;;;;;;8.50;3.00;;;11.20;99.90;;;;;;5013918;28;20022;-68
2024/02/27 10:11:08;;;;;;;5.25;2.50;;;11.20;99.90;;;;;;5013675;28;20068;-69
2024/02/27 10:13:33;;;;;;;5.47;3.25;;;11.20;99.90;;;;;;5012719;28;20022;-68
2024/02/27 10:16:00;;;;;;;6.95;2.60;;;11.20;99.90;;;;;;5012921;28;20026;-68
2024/02/27 10:18:26;;;;;;;7.93;2.90;;;11.30;99.90;;;;;;5012929;28;20113;-68
2024/02/27 10:20:51;;;;;;;3.38;2.42;;;11.30;99.90;;;;;;5014070;28;20105;-68
2024/02/27 10:23:17;;;;;;;5.25;2.78;;;11.30;99.90;;;;;;5012594;28;20138;-68
2024/02/27 10:25:43;;;;;;;5.22;2.47;;;11.30;99.90;;;;;;5012208;28;20056;-68
2024/02/27 10:28:09;;;;;;;6.20;2.58;;;11.30;99.90;;;;;;5011536;28;20018;-68
2024/02/27 10:30:36;;;;;;;6.03;2.53;;;11.30;99.90;;;;;;5010478;28;20101;-68
2024/02/27 10:33:02;;;;;;;10.20;3.30;;;11.30;99.90;;;;;;5012626;28;20022;-68
2024/02/27 10:35:27;;;;;;;4.93;2.75;;;11.30;99.90;;;;;;5010907;28;20417;-68
2024/02/27 10:37:53;;;;;;;4.95;2.55;;;11.30;99.90;;;;;;5013049;28;20033;-68
2024/02/27 10:40:19;;;;;;;6.35;2.67;;;11.30;99.90;;;;;;5011085;28;20033;-69
2024/02/27 10:42:45;;;;;;;8.20;3.47;;;11.30;99.90;;;;;;5014102;28;20018;-68
2024/02/27 10:45:11;;;;;;;8.13;3.00;;;11.30;99.90;;;;;;5013832;28;20121;-68
2024/02/27 10:47:37;;;;;;;6.65;2.72;;;11.30;99.90;;;;;;5014838;28;20022;-68
2024/02/27 10:50:06;;;;;;;8.68;2.40;;;11.40;99.90;;;;;;5014494;28;20038;-68
2024/02/27 10:52:36;;;;;;;7.63;4.28;;;11.40;99.90;;;;;;5014789;28;20076;-70
2024/02/27 10:55:03;;;;;;;6.80;3.15;;;11.40;99.90;;;;;;5015115;28;20149;-68
2024/02/27 10:57:32;;;;;;;8.70;2.85;;;11.40;99.90;;;;;;5014791;28;20478;-68
2024/02/27 10:59:58;;;;;;;5.50;2.72;;;11.40;99.90;;;;;;5014839;28;20076;-69
2024/02/27 11:02:26;;;;;;;7.22;3.60;;;11.40;99.90;;;;;;5014560;28;20025;-68
2024/02/27 11:04:53;;;;;;;6.97;3.53;;;11.40;99.90;;;;;;5013515;28;20037;-68
2024/02/27 11:07:19;;;;;;;8.05;3.53;;;11.40;99.90;;;;;;5014501;28;20030;-68
2024/02/27 11:09:49;;;;;;;7.28;3.00;;;11.40;99.90;;;;;;5013855;28;20069;-69
2024/02/27 11:12:15;;;;;;;6.95;2.75;;;11.40;99.90;;;;;;5013925;28;20045;-68
2024/02/27 11:14:44;;;;;;;6.25;2.67;;;11.40;99.90;;;;;;5013439;28;20030;-68
2024/02/27 11:17:21;;;;;;;6.80;2.80;;;11.40;99.90;;;;;;5013737;28;20033;-68
2024/02/27 11:19:50;;;;;;;7.45;2.95;;;11.40;99.90;;;;;;5014522;28;20085;-68
2024/02/27 11:22:19;;;;;;;3.80;2.88;;;11.40;99.90;;;;;;5013904;28;20036;-67
2024/02/27 11:24:48;;;;;;;6.78;2.95;;;11.40;99.90;;;;;;5014190;28;20084;-68
2024/02/27 11:27:20;;;;;;;7.78;2.70;;;11.40;99.90;;;;;;5014504;28;20552;-68
2024/02/27 11:29:46;;;;;;;4.82;2.30;;;11.40;99.90;;;;;;5014515;28;20478;-68
2024/02/27 11:32:13;;;;;;;5.72;2.72;;;11.40;99.90;;;;;;5014230;28;20026;-68
2024/02/27 11:34:40;;;;;;;4.78;2.50;;;11.40;99.90;;;;;;5014191;28;20494;-68
2024/02/27 11:37:22;;;;;;;5.47;3.05;;;11.40;99.90;;;;;;5014385;28;20052;-68
2024/02/27 11:39:49;;;;;;;5.78;2.67;;;11.40;99.90;;;;;;5014186;28;20037;-68
2024/02/27 11:42:43;;;;;;;7.43;3.10;;;11.50;99.90;;;;;;5013967;28;20018;-68
2024/02/27 11:45:13;;;;;;;6.30;3.20;;;11.40;99.90;;;;;;5014063;28;20034;-68
2024/02/27 11:47:53;;;;;;;8.05;3.20;;;11.50;99.90;;;;;;5013832;28;20068;-68
2024/02/27 11:50:37;;;;;;;9.95;3.50;;;11.50;99.90;;;;;;5014060;28;20121;-69
2024/02/27 11:53:20;;;;;;;8.02;3.28;;;11.50;99.90;;;;;;5013849;28;20056;-68
2024/02/27 11:55:53;;;;;;;5.47;2.92;;;11.50;99.90;;;;;;5012576;28;20474;-69
2024/02/27 11:58:20;;;;;;;6.75;3.10;;;11.50;99.90;;;;;;5013855;28;20026;-68
2024/02/27 12:00:46;;;;;;;8.48;3.28;;;11.60;99.90;;;;;;5013839;28;20014;-68
2024/02/27 12:03:12;;;;;;;7.10;3.67;;;11.60;99.90;;;;;;5013632;28;20037;-69
2024/02/27 12:05:39;;;;;;;8.00;3.67;;;11.60;99.90;;;;;;5013748;28;20034;-69
2024/02/27 12:08:05;;;;;;;6.13;3.60;;;11.60;99.90;;;;;;5013634;28;20014;-69
2024/02/27 12:10:31;;;;;;;5.47;3.30;;;11.70;99.90;;;;;;5013645;28;20022;-69
2024/02/27 12:12:57;;;;;;;4.50;3.10;;;11.70;99.90;;;;;;5013571;28;20117;-69
2024/02/27 12:15:23;;;;;;;5.22;2.95;;;11.70;99.90;;;;;;5010440;28;20121;-69
2024/02/27 12:17:49;;;;;;;11.02;3.00;;;11.70;99.90;;;;;;5010769;28;20029;-69
2024/02/27 12:20:16;;;;;;;6.28;3.03;;;11.70;99.90;;;;;;5012413;28;20036;-69
2024/02/27 12:22:46;;;;;;;6.18;3.10;;;11.80;99.90;;;;;;5012460;28;20045;-73
2024/02/27 12:25:15;;;;;;;4.10;2.60;;;11.80;99.90;;;;;;5013286;28;20478;-68
2024/02/27 12:27:42;;;;;;;6.00;2.90;;;11.80;99.90;;;;;;5013212;28;20355;-70
2024/02/27 12:30:12;;;;;;;10.68;3.28;;;11.80;99.90;;;;;;5013375;28;20026;-71
2024/02/27 12:32:42;;;;;;;5.60;3.08;;;11.80;99.90;;;;;;5013176;28;20471;-72
2024/02/27 12:35:13;;;;;;;5.20;2.65;;;11.80;99.90;;;;;;5013221;28;20390;-70
2024/02/27 12:37:46;;;;;;;5.53;2.40;;;11.80;99.90;;;;;;5013079;28;20025;-73
2024/02/27 12:40:16;;;;;;;5.20;2.78;;;11.90;99.90;;;;;;5012974;28;20029;-68
2024/02/27 12:42:48;;;;;;;4.30;2.80;;;11.90;99.90;;;;;;5013151;28;20025;-68
2024/02/27 12:45:15;;;;;;;5.45;3.30;;;11.90;99.90;;;;;;5012675;28;20161;-68